createdAt,value
2022-10-25T00:00:19.546Z,1.55
2022-10-25T00:02:46.057Z,1.55
2022-10-25T00:05:14.380Z,1.10
2022-10-25T00:07:40.966Z,1.25
2022-10-25T00:10:07.660Z,1.55
2022-10-25T00:12:34.097Z,1.60
2022-10-25T00:15:01.440Z,1.38
2022-10-25T00:17:27.840Z,1.77
2022-10-25T00:19:54.307Z,0.98
2022-10-25T00:22:20.693Z,1.90
2022-10-25T00:24:47.109Z,1.67
2022-10-25T00:27:13.578Z,1.30
2022-10-25T00:29:40.038Z,1.80
2022-10-25T00:32:06.443Z,1.10
2022-10-25T00:34:32.816Z,1.20
2022-10-25T00:36:59.156Z,1.30
2022-10-25T00:39:25.611Z,1.95
2022-10-25T00:41:51.994Z,1.30
2022-10-25T00:44:36.864Z,1.70
2022-10-25T00:47:04.843Z,1.17
2022-10-25T00:49:32.799Z,1.20
2022-10-25T00:52:01.406Z,1.10
2022-10-25T00:54:33.078Z,1.10
2022-10-25T00:57:01.792Z,1.02
2022-10-25T00:59:28.514Z,1.48
2022-10-25T01:01:55.766Z,1.23
2022-10-25T01:04:24.856Z,1.20
2022-10-25T01:06:51.909Z,1.20
2022-10-25T01:09:30.293Z,1.15
2022-10-25T01:11:56.726Z,1.35
2022-10-25T01:14:23.463Z,1.05
2022-10-25T01:16:49.831Z,1.10
2022-10-25T01:19:34.999Z,1.42
2022-10-25T01:22:04.376Z,1.00
2022-10-25T01:24:37.588Z,1.08
2022-10-25T01:27:03.960Z,1.10
2022-10-25T01:29:41.493Z,1.10
2022-10-25T01:32:10.878Z,1.30
2022-10-25T01:34:40.907Z,1.08
2022-10-25T01:37:46.159Z,1.20
2022-10-25T01:40:18.317Z,1.20
2022-10-25T01:42:49.062Z,1.10
2022-10-25T01:45:24.294Z,1.00
2022-10-25T01:47:52.521Z,1.52
2022-10-25T01:50:27.256Z,1.30
2022-10-25T01:55:24.655Z,1.35
2022-10-25T01:58:09.659Z,1.38
2022-10-25T02:00:43.883Z,1.00
2022-10-25T02:03:13.235Z,1.30
2022-10-25T02:05:45.752Z,1.30
2022-10-25T02:08:23.309Z,1.42
2022-10-25T02:11:02.307Z,1.50
2022-10-25T02:13:33.513Z,1.55
2022-10-25T02:16:05.710Z,1.02
2022-10-25T02:18:34.933Z,1.10
2022-10-25T02:21:02.319Z,1.60
2022-10-25T02:23:29.402Z,1.35
2022-10-25T02:25:56.339Z,1.35
2022-10-25T02:28:24.922Z,1.42
2022-10-25T02:30:52.478Z,1.42
2022-10-25T02:33:18.990Z,1.08
2022-10-25T02:35:45.578Z,1.55
2022-10-25T02:38:12.027Z,1.65
2022-10-25T02:40:38.465Z,1.50
2022-10-25T02:43:04.992Z,1.67
2022-10-25T02:45:31.399Z,1.33
2022-10-25T02:47:57.790Z,1.30
2022-10-25T02:50:24.157Z,1.20
2022-10-25T02:52:50.531Z,1.75
2022-10-25T02:55:16.887Z,1.35
2022-10-25T02:57:43.269Z,1.30
2022-10-25T03:00:10.087Z,1.40
2022-10-25T03:02:36.472Z,1.35
2022-10-25T03:05:02.861Z,1.35
2022-10-25T03:07:29.263Z,1.20
2022-10-25T03:09:55.654Z,1.25
2022-10-25T03:12:22.072Z,1.33
2022-10-25T03:14:48.430Z,1.40
2022-10-25T03:17:14.808Z,1.10
2022-10-25T03:19:41.193Z,1.30
2022-10-25T03:22:07.540Z,1.73
2022-10-25T03:24:33.886Z,1.33
2022-10-25T03:27:00.491Z,1.33
2022-10-25T03:29:26.852Z,1.38
2022-10-25T03:31:53.234Z,1.40
2022-10-25T03:34:19.591Z,1.58
2022-10-25T03:36:45.951Z,1.27
2022-10-25T03:39:12.357Z,1.38
2022-10-25T03:41:38.739Z,1.30
2022-10-25T03:44:05.285Z,1.10
2022-10-25T03:46:31.750Z,1.33
2022-10-25T03:48:58.116Z,1.40
2022-10-25T03:51:24.530Z,1.58
2022-10-25T03:53:50.981Z,1.23
2022-10-25T03:56:17.380Z,1.50
2022-10-25T03:58:43.750Z,1.48
2022-10-25T04:01:12.024Z,1.70
2022-10-25T04:03:38.651Z,1.40
2022-10-25T04:06:05.183Z,1.58
2022-10-25T04:08:31.550Z,1.20
2022-10-25T04:10:57.941Z,1.23
2022-10-25T04:13:24.368Z,1.98
2022-10-25T04:15:50.728Z,1.42
2022-10-25T04:18:17.103Z,1.30
2022-10-25T04:20:43.460Z,1.55
2022-10-25T04:23:09.811Z,1.48
2022-10-25T04:25:36.299Z,1.30
2022-10-25T04:28:02.805Z,1.98
2022-10-25T04:30:29.168Z,1.48
2022-10-25T04:32:56.824Z,2.00
2022-10-25T04:35:23.219Z,1.50
2022-10-25T04:37:51.843Z,1.95
2022-10-25T04:40:22.578Z,1.50
2022-10-25T04:42:51.309Z,1.42
2022-10-25T04:45:17.703Z,1.63
2022-10-25T04:47:44.068Z,2.08
2022-10-25T04:50:10.445Z,1.60
2022-10-25T04:52:36.818Z,1.52
2022-10-25T04:55:03.388Z,1.70
2022-10-25T04:57:29.753Z,1.40
2022-10-25T04:59:57.606Z,1.67
2022-10-25T05:02:24.376Z,1.52
2022-10-25T05:04:50.798Z,1.85
2022-10-25T05:07:17.729Z,1.73
2022-10-25T05:09:46.665Z,2.30
2022-10-25T05:12:13.952Z,1.70
2022-10-25T05:14:40.384Z,1.90
2022-10-25T05:17:06.859Z,1.50
2022-10-25T05:19:33.250Z,1.75
2022-10-25T05:21:59.591Z,2.03
2022-10-25T05:24:26.362Z,2.05
2022-10-25T05:26:52.733Z,2.08
2022-10-25T05:29:19.194Z,2.83
2022-10-25T05:31:45.562Z,2.08
2022-10-25T05:34:12.031Z,3.00
2022-10-25T05:36:38.477Z,2.70
2022-10-25T05:39:05.003Z,1.70
2022-10-25T05:41:34.597Z,2.08
2022-10-25T05:44:03.640Z,2.08
2022-10-25T05:46:30.042Z,2.13
2022-10-25T05:48:59.062Z,2.25
2022-10-25T05:51:35.645Z,2.17
2022-10-25T05:54:07.053Z,1.77
2022-10-25T05:56:33.981Z,1.95
2022-10-25T05:59:10.919Z,2.15
2022-10-25T06:01:38.929Z,2.45
2022-10-25T06:04:05.561Z,1.95
2022-10-25T06:06:32.102Z,2.20
2022-10-25T06:08:59.311Z,2.20
2022-10-25T06:11:26.253Z,1.85
2022-10-25T06:13:52.994Z,2.40
2022-10-25T06:16:20.389Z,1.90
2022-10-25T06:18:46.943Z,2.13
2022-10-25T06:21:13.325Z,2.25
2022-10-25T06:23:40.442Z,2.10
2022-10-25T06:26:11.485Z,2.33
2022-10-25T06:28:39.156Z,2.40
2022-10-25T06:31:12.831Z,3.40
2022-10-25T06:33:39.374Z,2.45
2022-10-25T06:36:07.371Z,2.30
2022-10-25T06:38:34.025Z,2.40
2022-10-25T06:41:01.157Z,2.13
2022-10-25T06:43:27.690Z,2.20
2022-10-25T06:45:54.343Z,2.47
2022-10-25T06:48:20.879Z,2.42
2022-10-25T06:50:49.909Z,1.83
2022-10-25T06:53:18.515Z,2.60
2022-10-25T06:55:47.186Z,2.78
2022-10-25T06:58:13.659Z,2.13
2022-10-25T07:00:40.080Z,3.75
2022-10-25T07:03:06.428Z,2.28
2022-10-25T07:05:32.819Z,2.78
2022-10-25T07:07:59.184Z,2.53
2022-10-25T07:10:25.564Z,2.10
2022-10-25T07:12:51.941Z,2.20
2022-10-25T07:17:46.181Z,1.65
2022-10-25T07:20:12.883Z,2.00
2022-10-25T07:22:39.261Z,1.70
2022-10-25T07:25:05.870Z,1.60
2022-10-25T07:27:32.938Z,1.73
2022-10-25T07:29:59.320Z,1.67
2022-10-25T07:32:25.689Z,1.83
2022-10-25T07:34:52.167Z,2.15
2022-10-25T07:37:18.636Z,2.45
2022-10-25T07:39:45.002Z,2.10
2022-10-25T07:42:11.419Z,2.30
2022-10-25T07:44:37.913Z,2.00
2022-10-25T07:47:04.415Z,1.95
2022-10-25T07:49:30.768Z,1.73
2022-10-25T07:51:57.113Z,1.80
2022-10-25T07:54:23.486Z,2.15
2022-10-25T07:56:49.894Z,1.60
2022-10-25T07:59:16.324Z,2.05
2022-10-25T08:01:42.809Z,1.42
2022-10-25T08:04:09.211Z,1.70
2022-10-25T08:06:36.376Z,1.67
2022-10-25T08:09:14.179Z,1.80
2022-10-25T08:11:41.691Z,1.80
2022-10-25T08:14:08.123Z,1.75
2022-10-25T08:16:34.592Z,1.67
2022-10-25T08:19:00.928Z,1.45
2022-10-25T08:21:27.304Z,1.80
2022-10-25T08:23:53.671Z,1.58
2022-10-25T08:26:25.075Z,2.42
2022-10-25T08:28:51.604Z,1.40
2022-10-25T08:31:18.109Z,1.92
2022-10-25T08:33:44.469Z,1.90
2022-10-25T08:36:10.867Z,1.85
2022-10-25T08:38:37.247Z,2.05
2022-10-25T08:41:06.798Z,1.90
2022-10-25T08:43:33.295Z,1.67
2022-10-25T08:46:22.665Z,1.65
2022-10-25T08:48:51.504Z,1.90
2022-10-25T08:51:37.118Z,1.95
2022-10-25T08:54:06.373Z,1.73
2022-10-25T08:56:33.125Z,1.70
2022-10-25T08:59:02.382Z,2.72
2022-10-25T09:01:31.510Z,2.10
2022-10-25T09:04:01.164Z,2.28
2022-10-25T09:06:27.550Z,2.03
2022-10-25T09:09:18.710Z,2.22
2022-10-25T09:11:48.101Z,2.40
2022-10-25T09:14:23.671Z,1.60
2022-10-25T09:16:55.680Z,1.60
2022-10-25T09:19:40.752Z,1.55
2022-10-25T09:22:21.130Z,1.77
2022-10-25T09:24:57.820Z,1.73
2022-10-25T09:27:24.431Z,1.58
2022-10-25T09:29:54.645Z,1.55
2022-10-25T09:32:27.337Z,1.65
2022-10-25T09:34:54.393Z,1.57
2022-10-25T09:37:25.744Z,1.38
2022-10-25T09:39:54.288Z,1.95
2022-10-25T09:42:25.227Z,1.35
2022-10-25T09:44:55.919Z,1.88
2022-10-25T09:47:41.292Z,1.98
2022-10-25T09:50:15.540Z,1.40
2022-10-25T09:52:51.406Z,1.33
2022-10-25T09:55:27.863Z,1.48
2022-10-25T09:57:54.773Z,1.65
2022-10-25T10:00:21.160Z,1.23
2022-10-25T10:02:47.637Z,1.20
2022-10-25T10:05:18.758Z,1.38
2022-10-25T10:07:46.264Z,1.70
2022-10-25T10:10:15.186Z,1.40
2022-10-25T10:12:45.504Z,1.30
2022-10-25T10:15:20.367Z,3.28
2022-10-25T10:17:47.215Z,1.27
2022-10-25T10:20:15.020Z,2.05
2022-10-25T10:22:50.501Z,0.93
2022-10-25T10:25:22.600Z,1.40
2022-10-25T10:27:49.756Z,1.00
2022-10-25T10:30:22.135Z,1.30
2022-10-25T10:32:55.007Z,1.20
2022-10-25T10:35:31.172Z,1.10
2022-10-25T10:38:16.335Z,1.00
2022-10-25T10:40:43.977Z,1.10
2022-10-25T10:43:31.463Z,0.93
2022-10-25T10:46:05.708Z,1.23
2022-10-25T10:48:36.711Z,1.30
2022-10-25T10:51:15.420Z,1.15
2022-10-25T10:53:52.599Z,1.30
2022-10-25T10:56:22.001Z,1.00
2022-10-25T10:58:53.508Z,1.13
2022-10-25T11:01:32.740Z,0.98
2022-10-25T11:04:01.069Z,1.25
2022-10-25T11:06:34.540Z,1.00
2022-10-25T11:09:12.350Z,1.05
2022-10-25T11:11:39.371Z,1.20
2022-10-25T11:14:13.580Z,1.45
2022-10-25T11:16:42.788Z,1.08
2022-10-25T11:19:18.174Z,0.80
2022-10-25T11:21:44.566Z,1.20
2022-10-25T11:24:29.665Z,0.88
2022-10-25T11:27:02.113Z,1.13
2022-10-25T11:29:43.645Z,0.90
2022-10-25T11:32:22.229Z,1.17
2022-10-25T11:35:04.591Z,0.82
2022-10-25T11:37:38.903Z,0.98
2022-10-25T11:40:22.836Z,0.95
2022-10-25T11:43:08.034Z,0.77
2022-10-25T11:45:34.526Z,0.82
2022-10-25T11:48:00.850Z,1.25
2022-10-25T11:50:30.357Z,0.90
2022-10-25T11:53:15.083Z,0.98
2022-10-25T11:55:41.428Z,1.08
2022-10-25T11:58:10.855Z,0.85
2022-10-25T12:00:49.653Z,1.00
2022-10-25T12:03:24.627Z,0.95
2022-10-25T12:06:09.351Z,1.40
2022-10-25T12:08:48.000Z,0.90
2022-10-25T12:11:18.914Z,1.02
2022-10-25T12:13:47.403Z,1.52
2022-10-25T12:16:15.297Z,1.30
2022-10-25T12:18:45.845Z,1.02
2022-10-25T12:21:15.089Z,1.00
2022-10-25T12:23:43.791Z,1.08
2022-10-25T12:26:13.487Z,1.10
2022-10-25T12:28:44.897Z,1.20
2022-10-25T12:31:11.258Z,1.95
2022-10-25T12:33:37.693Z,1.75
2022-10-25T12:36:06.682Z,1.20
2022-10-25T12:38:37.333Z,1.65
2022-10-25T12:41:07.067Z,1.10
2022-10-25T12:43:42.035Z,1.38
2022-10-25T12:46:22.064Z,1.80
2022-10-25T12:48:51.236Z,1.70
2022-10-25T12:51:38.175Z,2.30
2022-10-25T12:54:13.763Z,1.85
2022-10-25T12:56:59.148Z,1.20
2022-10-25T12:59:50.005Z,1.00
2022-10-25T13:02:16.562Z,1.25
2022-10-25T13:04:52.179Z,1.83
2022-10-25T13:07:18.968Z,1.40
2022-10-25T13:09:45.557Z,1.67
2022-10-25T13:12:14.959Z,1.05
2022-10-25T13:14:54.941Z,1.23
2022-10-25T13:17:21.280Z,1.63
2022-10-25T13:19:55.585Z,1.17
2022-10-25T13:22:34.194Z,1.63
2022-10-25T13:25:07.955Z,1.60
2022-10-25T13:27:35.101Z,1.60
2022-10-25T13:30:01.616Z,1.00
2022-10-25T13:32:32.574Z,1.20
2022-10-25T13:34:59.187Z,1.00
2022-10-25T13:37:31.727Z,1.23
2022-10-25T13:39:59.497Z,0.93
2022-10-25T13:42:32.339Z,1.10
2022-10-25T13:45:04.791Z,1.38
2022-10-25T13:47:39.585Z,1.27
2022-10-25T13:50:11.729Z,1.00
2022-10-25T13:52:38.713Z,1.10
2022-10-25T13:55:10.163Z,0.98
2022-10-25T13:57:55.830Z,1.20
2022-10-25T14:00:28.422Z,1.05
2022-10-25T14:03:02.798Z,0.93
2022-10-25T14:05:47.939Z,1.30
2022-10-25T14:08:21.680Z,1.23
2022-10-25T14:10:49.381Z,1.27
2022-10-25T14:13:19.248Z,1.95
2022-10-25T14:15:49.009Z,1.63
2022-10-25T14:18:17.674Z,1.73
2022-10-25T14:20:45.582Z,2.05
2022-10-25T14:23:18.335Z,1.38
2022-10-25T14:25:53.391Z,1.30
2022-10-25T14:28:25.050Z,2.33
2022-10-25T14:30:55.865Z,1.75
2022-10-25T14:33:25.322Z,1.63
2022-10-25T14:35:53.425Z,1.80
2022-10-25T14:38:24.529Z,2.05
2022-10-25T14:40:58.240Z,2.05
2022-10-25T14:43:24.716Z,1.83
2022-10-25T14:45:55.020Z,1.42
2022-10-25T14:48:21.489Z,1.80
2022-10-25T14:50:47.990Z,2.25
2022-10-25T14:53:18.523Z,1.33
2022-10-25T14:55:55.829Z,2.05
2022-10-25T14:58:23.091Z,1.20
2022-10-25T15:00:53.918Z,1.30
2022-10-25T15:03:20.593Z,1.75
2022-10-25T15:05:47.123Z,1.40
2022-10-25T15:08:24.009Z,1.88
2022-10-25T15:10:57.910Z,1.60
2022-10-25T15:13:28.822Z,1.33
2022-10-25T15:15:56.025Z,1.58
2022-10-25T15:18:25.232Z,1.38
2022-10-25T15:21:06.512Z,1.77
2022-10-25T15:23:34.090Z,1.30
2022-10-25T15:26:18.951Z,2.13
2022-10-25T15:28:49.599Z,2.20
2022-10-25T15:31:22.450Z,2.10
2022-10-25T15:34:01.422Z,2.72
2022-10-25T15:36:29.181Z,2.33
2022-10-25T15:39:16.798Z,2.20
2022-10-25T15:41:43.432Z,2.10
2022-10-25T15:44:09.826Z,2.03
2022-10-25T15:46:38.045Z,2.58
2022-10-25T15:49:06.668Z,2.10
2022-10-25T15:51:34.172Z,2.58
2022-10-25T15:54:00.540Z,2.35
2022-10-25T15:56:26.984Z,5.88
2022-10-25T15:58:53.462Z,4.28
2022-10-25T16:01:20.028Z,3.78
2022-10-25T16:03:46.728Z,3.70
2022-10-25T16:06:14.114Z,2.92
2022-10-25T16:08:40.838Z,2.67
2022-10-25T16:11:11.722Z,2.30
2022-10-25T16:13:38.620Z,5.20
2022-10-25T16:16:21.833Z,3.05
2022-10-25T16:18:53.025Z,3.25
2022-10-25T16:21:21.421Z,3.25
2022-10-25T16:23:48.391Z,2.38
2022-10-25T16:26:20.287Z,2.72
2022-10-25T16:28:46.678Z,2.50
2022-10-25T16:31:13.085Z,2.25
2022-10-25T16:33:39.471Z,1.88
2022-10-25T16:36:06.085Z,2.22
2022-10-25T16:38:32.519Z,2.30
2022-10-25T16:40:58.940Z,3.58
2022-10-25T16:43:25.310Z,2.60
2022-10-25T16:45:51.716Z,3.50
2022-10-25T16:48:18.103Z,3.22
2022-10-25T16:50:44.541Z,3.60
2022-10-25T16:53:12.958Z,4.78
2022-10-25T16:55:39.522Z,4.50
2022-10-25T16:58:05.888Z,4.20
2022-10-25T17:00:35.301Z,4.05
2022-10-25T17:03:02.111Z,3.90
2022-10-25T17:05:29.847Z,3.80
2022-10-25T17:07:56.275Z,3.97
2022-10-25T17:10:22.647Z,4.07
2022-10-25T17:12:50.442Z,3.95
2022-10-25T17:15:17.652Z,4.65
2022-10-25T17:17:45.680Z,3.90
2022-10-25T17:20:13.713Z,3.30
2022-10-25T17:22:41.139Z,3.25
2022-10-25T17:25:08.194Z,4.78
2022-10-25T17:27:39.923Z,3.67
2022-10-25T17:30:07.212Z,3.10
2022-10-25T17:32:33.644Z,3.42
2022-10-25T17:35:01.232Z,3.00
2022-10-25T17:37:28.046Z,2.83
2022-10-25T17:39:54.433Z,3.08
2022-10-25T17:42:20.833Z,3.00
2022-10-25T17:44:47.306Z,3.03
2022-10-25T17:47:14.900Z,3.28
2022-10-25T17:49:41.463Z,3.03
2022-10-25T17:52:08.399Z,10.13
2022-10-25T17:54:34.979Z,9.57
2022-10-25T17:57:02.905Z,5.97
2022-10-25T17:59:30.250Z,3.90
2022-10-25T18:01:57.412Z,3.15
2022-10-25T18:04:24.029Z,2.70
2022-10-25T18:06:50.568Z,3.35
2022-10-25T18:09:16.971Z,3.20
2022-10-25T18:11:43.819Z,3.03
2022-10-25T18:14:10.216Z,3.10
2022-10-25T18:16:36.752Z,3.55
2022-10-25T18:19:04.370Z,3.22
2022-10-25T18:21:31.940Z,3.22
2022-10-25T18:23:59.826Z,3.10
2022-10-25T18:26:26.567Z,2.78
2022-10-25T18:28:53.077Z,2.70
2022-10-25T18:31:20.528Z,3.33
2022-10-25T18:33:50.365Z,3.35
2022-10-25T18:36:19.310Z,3.53
2022-10-25T18:38:46.594Z,4.75
2022-10-25T18:41:14.643Z,4.50
2022-10-25T18:43:41.513Z,5.20
2022-10-25T18:46:07.915Z,4.95
2022-10-25T18:48:34.414Z,11.45
2022-10-25T18:51:09.029Z,9.40
2022-10-25T18:53:35.516Z,5.70
2022-10-25T18:56:01.917Z,3.60
2022-10-25T18:58:31.760Z,3.42
2022-10-25T19:01:05.249Z,4.07
2022-10-25T19:03:31.812Z,4.35
2022-10-25T19:05:58.222Z,4.72
2022-10-25T19:08:24.698Z,8.85
2022-10-25T19:10:51.284Z,4.65
2022-10-25T19:13:20.784Z,4.15
2022-10-25T19:15:47.435Z,3.80
2022-10-25T19:18:14.533Z,3.28
2022-10-25T19:20:45.463Z,3.42
2022-10-25T19:23:12.957Z,8.95
2022-10-25T19:25:39.380Z,11.05
2022-10-25T19:28:05.832Z,6.65
2022-10-25T19:30:35.500Z,5.90
2022-10-25T19:33:04.073Z,5.57
2022-10-25T19:35:33.555Z,7.20
2022-10-25T19:38:00.018Z,4.50
2022-10-25T19:40:26.549Z,4.50
2022-10-25T19:42:53.327Z,4.50
2022-10-25T19:45:19.726Z,4.28
2022-10-25T19:47:46.783Z,4.97
2022-10-25T19:50:13.466Z,6.43
2022-10-25T19:52:40.044Z,4.28
2022-10-25T19:55:06.601Z,7.68
2022-10-25T19:57:33.607Z,7.85
2022-10-25T20:00:00.063Z,6.88
2022-10-25T20:02:26.654Z,5.90
2022-10-25T20:04:53.137Z,6.90
2022-10-25T20:07:19.637Z,8.82
2022-10-25T20:09:46.048Z,6.50
2022-10-25T20:12:12.479Z,4.80
2022-10-25T20:14:38.914Z,6.82
2022-10-25T20:17:05.504Z,6.30
2022-10-25T20:19:32.153Z,5.10
2022-10-25T20:21:58.680Z,4.38
2022-10-25T20:24:25.144Z,3.85
2022-10-25T20:26:51.814Z,3.55
2022-10-25T20:29:21.274Z,3.70
2022-10-25T20:31:48.559Z,3.00
2022-10-25T20:34:17.531Z,3.28
2022-10-25T20:36:44.290Z,3.75
2022-10-25T20:39:14.426Z,3.50
2022-10-25T20:41:41.003Z,3.63
2022-10-25T20:44:08.736Z,3.47
2022-10-25T20:46:35.460Z,3.80
2022-10-25T20:49:03.273Z,3.53
2022-10-25T20:51:29.680Z,3.53
2022-10-25T20:53:57.000Z,4.15
2022-10-25T20:56:23.486Z,3.70
2022-10-25T20:58:50.125Z,3.63
2022-10-25T21:01:16.620Z,3.03
2022-10-25T21:03:43.270Z,3.42
2022-10-25T21:06:14.312Z,3.58
2022-10-25T21:08:41.136Z,3.42
2022-10-25T21:11:09.485Z,3.00
2022-10-25T21:13:36.106Z,2.78
2022-10-25T21:16:06.265Z,4.30
2022-10-25T21:18:32.667Z,3.30
2022-10-25T21:21:03.030Z,3.08
2022-10-25T21:23:31.038Z,3.33
2022-10-25T21:26:01.318Z,2.90
2022-10-25T21:28:30.815Z,3.38
2022-10-25T21:31:00.080Z,3.47
2022-10-25T21:33:26.442Z,3.25
2022-10-25T21:35:52.824Z,3.22
2022-10-25T21:38:19.487Z,3.22
2022-10-25T21:40:45.852Z,3.50
2022-10-25T21:43:12.207Z,4.35
2022-10-25T21:45:42.063Z,4.38
2022-10-25T21:48:08.513Z,3.45
2022-10-25T21:50:34.875Z,4.20
2022-10-25T21:53:01.292Z,3.75
2022-10-25T21:55:27.693Z,3.72
2022-10-25T21:57:54.577Z,3.65
2022-10-25T22:00:21.318Z,4.35
2022-10-25T22:02:47.693Z,3.90
2022-10-25T22:05:14.189Z,4.18
2022-10-25T22:07:40.526Z,3.58
2022-10-25T22:10:07.046Z,3.53
2022-10-25T22:12:33.403Z,3.80
2022-10-25T22:14:59.885Z,3.83
2022-10-25T22:17:26.234Z,3.50
2022-10-25T22:19:52.643Z,2.90
2022-10-25T22:22:19.007Z,3.80
2022-10-25T22:24:45.547Z,3.67
2022-10-25T22:27:11.917Z,3.58
2022-10-25T22:29:38.282Z,3.22
2022-10-25T22:32:04.707Z,3.65
2022-10-25T22:34:31.113Z,4.05
2022-10-25T22:36:57.522Z,4.50
2022-10-25T22:39:23.934Z,4.60
2022-10-25T22:41:52.902Z,4.55
2022-10-25T22:44:19.319Z,3.90
2022-10-25T22:46:45.686Z,3.97
2022-10-25T22:49:12.098Z,3.85
2022-10-25T22:51:38.861Z,3.88
2022-10-25T22:54:05.433Z,3.50
2022-10-25T22:56:32.244Z,3.53
2022-10-25T22:59:02.889Z,3.60
2022-10-25T23:01:30.511Z,3.88
2022-10-25T23:03:57.847Z,3.70
2022-10-25T23:06:25.873Z,4.65
2022-10-25T23:08:53.228Z,4.00
2022-10-25T23:11:20.896Z,3.75
2022-10-25T23:13:47.835Z,3.80
2022-10-25T23:16:14.747Z,3.67
2022-10-25T23:18:41.596Z,3.63
2022-10-25T23:21:10.575Z,4.22
2022-10-25T23:23:38.559Z,7.22
2022-10-25T23:28:37.047Z,17.10
2022-10-25T23:31:06.984Z,11.23
2022-10-25T23:33:33.439Z,4.40
2022-10-25T23:36:09.382Z,3.97
2022-10-25T23:38:36.011Z,3.35
2022-10-25T23:41:02.372Z,3.70
2022-10-25T23:43:29.366Z,3.67
2022-10-25T23:45:55.765Z,4.00
2022-10-25T23:48:22.139Z,3.88
2022-10-25T23:50:59.056Z,3.95
2022-10-25T23:53:25.672Z,3.42
2022-10-25T23:55:52.130Z,3.67
2022-10-25T23:58:18.542Z,3.38
